Weather forecast for El Toro

Venezuela, 369 m
N8.003, E-62.358


Sounding

Red line — air temperature ˚C.
Blue line — thermal bubble temperature ˚C.
Green line — dew point temperature ˚C.
Wind speed is in meters per second.

Table forecast

GFS 0.25˚ model

temp. wind gust humid. clouds prec. press. hpbl
Mon17 00:00 22 68.0 ene 2 11 97 100 0.6 1015 535
03:00 22 86.0 e 2 10 98 100 0.6 1013 511
06:00 22 91.0 e 1 6 97 100 0.0 1014 374
09:00 24 108.0 ese 2 6 89 99 0.0 1015 483
12:00 30 144.0 se 3 3 60 54 0.2 1014 1125
15:00 31 98.0 e 0 2 58 53 1.6 1011 1080
18:00 25 18.0 nne 3 8 86 100 2.5 1012 353
21:00 22 37.0 ne 3 10 96 95 3.8 1014 420
 
Tue18 00:00 22 56.0 ne 3 11 95 87 0.0 1016 456
03:00 22 84.0 e 2 9 96 93 0.0 1014 475
06:00 21 94.0 e 2 9 98 100 0.0 1014 477
09:00 24 96.0 e 3 8 84 100 0.0 1015 642
12:00 30 131.0 se 3 4 58 81 0.4 1015 1157
15:00 27 47.0 ne 2 4 86 68 7.1 1012 597
18:00 24 51.0 ne 2 8 93 100 6.7 1011 441
21:00 22 58.0 ene 3 11 96 99 8.5 1013 499
 
Wed19 00:00 22 73.0 ene 3 10 96 95 0.3 1015 484
03:00 22 92.0 e 3 10 98 97 1.3 1013 552
06:00 21 87.0 e 2 8 97 100 0.4 1013 392
09:00 23 103.0 ese 2 6 93 99 0.4 1014 447
12:00 28 128.0 se 2 4 69 97 0.5 1015 876
15:00 26 92.0 e 2 5 83 98 4.1 1012 711
18:00 25 53.0 ne 2 7 91 100 1.3 1011 460
21:00 22 38.0 ne 3 11 96 100 1.9 1014 416
 
Thu20 00:00 22 75.0 ene 3 11 97 99 0.0 1016 493
03:00 20 84.0 e 3 12 96 89 0.0 1014 480
06:00 21 93.0 e 2 11 99 24 0.0 1014 489
09:00 23 98.0 e 4 10 88 47 0.0 1016 734
12:00 29 110.0 ese 4 8 53 50 0.0 1016 1617
15:00 29 98.0 e 4 8 57 50 0.8 1013 1581
18:00 27 85.0 e 4 8 69 23 0.9 1013 1088
21:00 23 78.0 ene 3 10 90 50 1.1 1015 695
 
Fri21 00:00 22 82.0 e 3 11 91 100 0.1 1017 791
03:00 21 85.0 e 3 11 93 99 0.1 1015 729
06:00 20 84.0 e 2 11 95 49 0.1 1015 591
09:00 23 90.0 e 4 10 85 41 0.4 1017 873
12:00 27 98.0 e 4 8 71 66 1.0 1017 1136
15:00 27 91.0 e 4 7 70 47 2.9 1014 1160
18:00 26 72.0 ene 4 8 75 59 0.9 1013 980
21:00 22 80.0 e 3 11 93 79 1.5 1016 791
 

0.012 s